createdAt,value
2023-05-05T00:00:01.071Z,370.00
2023-05-05T00:01:01.063Z,372.00
2023-05-05T00:02:01.100Z,374.00
2023-05-05T00:03:01.144Z,373.00
2023-05-05T00:04:01.095Z,376.00
2023-05-05T00:05:01.037Z,378.00
2023-05-05T00:06:01.052Z,376.00
2023-05-05T00:07:01.035Z,374.00
2023-05-05T00:08:01.004Z,375.00
2023-05-05T00:09:01.022Z,374.00
2023-05-05T00:10:01.004Z,372.00
2023-05-05T00:11:00.983Z,374.00
2023-05-05T00:12:00.975Z,375.00
2023-05-05T00:13:00.972Z,375.00
2023-05-05T00:14:00.953Z,373.00
2023-05-05T00:15:00.946Z,372.00
2023-05-05T00:16:00.954Z,372.00
2023-05-05T00:17:00.975Z,374.00
2023-05-05T00:18:00.984Z,373.00
2023-05-05T00:19:00.962Z,371.00
2023-05-05T00:20:00.920Z,369.00
2023-05-05T00:21:00.949Z,367.00
2023-05-05T00:22:00.924Z,370.00
2023-05-05T00:23:00.914Z,370.00
2023-05-05T00:24:00.883Z,370.00
2023-05-05T00:25:00.892Z,372.00
2023-05-05T00:26:00.887Z,371.00
2023-05-05T00:27:00.883Z,370.00
2023-05-05T00:28:00.875Z,373.00
2023-05-05T00:29:00.899Z,373.00
2023-05-05T00:30:00.860Z,375.00
2023-05-05T00:31:00.859Z,373.00
2023-05-05T00:32:00.847Z,375.00
2023-05-05T00:33:00.836Z,373.00
2023-05-05T00:34:00.844Z,376.00
2023-05-05T00:35:00.813Z,377.00
2023-05-05T00:36:00.829Z,378.00
2023-05-05T00:37:00.797Z,376.00
2023-05-05T00:38:00.800Z,374.00
2023-05-05T00:39:00.835Z,372.00
2023-05-05T00:40:00.777Z,374.00
2023-05-05T00:41:00.761Z,374.00
2023-05-05T00:42:00.758Z,371.00
2023-05-05T00:43:00.789Z,372.00
2023-05-05T00:44:00.761Z,376.00
2023-05-05T00:45:00.741Z,379.00
2023-05-05T00:46:00.748Z,380.00
2023-05-05T00:47:00.738Z,381.00
2023-05-05T00:48:00.889Z,379.00
2023-05-05T00:49:00.723Z,379.00
2023-05-05T00:50:00.711Z,379.00
2023-05-05T00:51:00.728Z,377.00
2023-05-05T00:52:00.679Z,377.00
2023-05-05T00:53:00.679Z,379.00
2023-05-05T00:54:00.688Z,379.00
2023-05-05T00:55:00.693Z,381.00
2023-05-05T00:56:00.668Z,381.00
2023-05-05T00:57:00.656Z,382.00
2023-05-05T00:58:00.649Z,384.00
2023-05-05T00:59:00.641Z,386.00
2023-05-05T01:00:00.637Z,384.00
2023-05-05T01:01:00.627Z,382.00
2023-05-05T01:02:00.695Z,382.00
2023-05-05T01:03:00.682Z,382.00
2023-05-05T01:04:00.642Z,381.00
2023-05-05T01:05:00.586Z,378.00
2023-05-05T01:06:00.573Z,380.00
2023-05-05T01:07:00.582Z,380.00
2023-05-05T01:08:00.570Z,383.00
2023-05-05T01:09:00.556Z,383.00
2023-05-05T01:10:14.958Z,384.00
2023-05-05T01:11:01.558Z,384.00
2023-05-05T01:12:00.557Z,383.00
2023-05-05T01:13:00.643Z,382.00
2023-05-05T01:14:00.516Z,383.00
2023-05-05T01:15:00.509Z,384.00
2023-05-05T01:16:00.536Z,384.00
2023-05-05T01:17:00.507Z,386.00
2023-05-05T01:18:00.529Z,387.00
2023-05-05T01:19:00.496Z,388.00
2023-05-05T01:20:00.466Z,386.00
2023-05-05T01:21:00.469Z,386.00
2023-05-05T01:22:00.488Z,384.00
2023-05-05T01:23:00.453Z,383.00
2023-05-05T01:24:00.430Z,382.00
2023-05-05T01:25:00.466Z,382.00
2023-05-05T01:26:00.420Z,382.00
2023-05-05T01:27:00.409Z,381.00
2023-05-05T01:28:00.417Z,382.00
2023-05-05T01:29:00.427Z,383.00
2023-05-05T01:30:00.463Z,382.00
2023-05-05T01:31:00.467Z,381.00
2023-05-05T01:32:00.603Z,382.00
2023-05-05T01:33:00.537Z,382.00
2023-05-05T01:34:00.493Z,381.00
2023-05-05T01:35:00.587Z,381.00
2023-05-05T01:36:00.607Z,380.00
2023-05-05T01:37:00.617Z,382.00
2023-05-05T01:38:00.628Z,382.00
2023-05-05T01:39:00.655Z,381.00
2023-05-05T01:40:00.640Z,381.00
2023-05-05T01:41:00.640Z,381.00
2023-05-05T01:42:00.647Z,381.00
2023-05-05T01:43:00.660Z,378.00
2023-05-05T01:44:00.668Z,379.00
2023-05-05T01:45:00.717Z,379.00
2023-05-05T01:46:00.782Z,383.00
2023-05-05T01:47:00.736Z,384.00
2023-05-05T01:48:00.767Z,383.00
2023-05-05T01:49:00.774Z,386.00
2023-05-05T01:50:00.804Z,387.00
2023-05-05T01:51:00.813Z,385.00
2023-05-05T01:52:00.817Z,386.00
2023-05-05T01:53:00.836Z,383.00
2023-05-05T01:54:00.865Z,382.00
2023-05-05T01:55:00.919Z,385.00
2023-05-05T01:56:00.937Z,385.00
2023-05-05T01:57:00.952Z,385.00
2023-05-05T01:58:00.952Z,385.00
2023-05-05T01:59:00.969Z,385.00
2023-05-05T02:00:00.980Z,386.00
2023-05-05T02:01:01.019Z,384.00
2023-05-05T02:02:01.088Z,385.00
2023-05-05T02:03:01.104Z,382.00
2023-05-05T02:04:01.028Z,381.00
2023-05-05T02:05:01.053Z,377.00
2023-05-05T02:06:01.063Z,376.00
2023-05-05T02:07:01.084Z,378.00
2023-05-05T02:08:01.091Z,379.00
2023-05-05T02:09:01.112Z,381.00
2023-05-05T02:10:01.122Z,379.00
2023-05-05T02:11:01.151Z,381.00
2023-05-05T02:12:01.148Z,379.00
2023-05-05T02:13:01.180Z,380.00
2023-05-05T02:14:01.261Z,379.00
2023-05-05T02:15:01.216Z,378.00
2023-05-05T02:16:01.272Z,377.00
2023-05-05T02:17:01.229Z,379.00
2023-05-05T02:18:01.290Z,382.00
2023-05-05T02:19:01.267Z,383.00
2023-05-05T02:20:01.344Z,384.00
2023-05-05T02:21:01.286Z,382.00
2023-05-05T02:22:01.314Z,383.00
2023-05-05T02:23:01.312Z,385.00
2023-05-05T02:24:01.393Z,385.00
2023-05-05T02:25:01.391Z,385.00
2023-05-05T02:26:01.401Z,382.00
2023-05-05T02:27:01.417Z,383.00
2023-05-05T02:28:01.441Z,382.00
2023-05-05T02:29:01.554Z,378.00
2023-05-05T02:30:01.548Z,378.00
2023-05-05T02:31:01.614Z,379.00
2023-05-05T02:32:01.579Z,382.00
2023-05-05T02:33:01.614Z,383.00
2023-05-05T02:34:01.622Z,383.00
2023-05-05T02:35:01.732Z,384.00
2023-05-05T02:36:01.820Z,385.00
2023-05-05T02:37:01.822Z,387.00
2023-05-05T02:38:01.870Z,389.00
2023-05-05T02:39:01.816Z,388.00
2023-05-05T02:40:01.918Z,388.00
2023-05-05T02:41:01.993Z,388.00
2023-05-05T02:42:01.949Z,386.00
2023-05-05T02:43:01.996Z,382.00
2023-05-05T02:44:01.962Z,383.00
2023-05-05T02:45:01.992Z,383.00
2023-05-05T02:46:02.054Z,382.00
2023-05-05T02:47:02.009Z,383.00
2023-05-05T02:48:02.060Z,383.00
2023-05-05T02:49:02.045Z,383.00
2023-05-05T02:50:02.060Z,383.00
2023-05-05T02:51:02.068Z,384.00
2023-05-05T02:52:02.068Z,384.00
2023-05-05T02:53:02.075Z,383.00
2023-05-05T02:54:02.084Z,385.00
2023-05-05T02:55:02.090Z,384.00
2023-05-05T02:56:02.096Z,384.00
2023-05-05T02:57:02.114Z,385.00
2023-05-05T02:58:02.133Z,386.00
2023-05-05T02:59:02.137Z,386.00
2023-05-05T03:00:02.123Z,386.00
2023-05-05T03:01:02.140Z,387.00
2023-05-05T03:02:02.153Z,387.00
2023-05-05T03:03:02.239Z,387.00
2023-05-05T03:04:02.167Z,389.00
2023-05-05T03:05:02.182Z,390.00
2023-05-05T03:06:02.202Z,389.00
2023-05-05T03:07:02.226Z,388.00
2023-05-05T03:08:02.338Z,386.00
2023-05-05T03:09:02.235Z,385.00
2023-05-05T03:10:02.228Z,385.00
2023-05-05T03:11:02.266Z,386.00
2023-05-05T03:12:02.271Z,386.00
2023-05-05T03:13:02.376Z,388.00
2023-05-05T03:14:02.260Z,388.00
2023-05-05T03:15:02.329Z,387.00
2023-05-05T03:16:02.369Z,390.00
2023-05-05T03:17:02.361Z,392.00
2023-05-05T03:18:02.377Z,392.00
2023-05-05T03:19:02.347Z,391.00
2023-05-05T03:20:03.814Z,388.00
2023-05-05T03:21:02.389Z,386.00
2023-05-05T03:22:02.377Z,387.00
2023-05-05T03:23:02.383Z,388.00
2023-05-05T03:24:02.400Z,384.00
2023-05-05T03:25:02.422Z,383.00
2023-05-05T03:26:02.410Z,382.00
2023-05-05T03:27:02.395Z,382.00
2023-05-05T03:28:02.440Z,387.00
2023-05-05T03:29:02.424Z,386.00
2023-05-05T03:30:02.427Z,386.00
2023-05-05T03:31:02.429Z,388.00
2023-05-05T03:32:02.452Z,389.00
2023-05-05T03:33:02.431Z,390.00
2023-05-05T03:34:02.426Z,390.00
2023-05-05T03:35:02.442Z,388.00
2023-05-05T03:36:02.454Z,387.00
2023-05-05T03:37:02.438Z,386.00
2023-05-05T03:38:02.447Z,385.00
2023-05-05T03:39:02.486Z,385.00
2023-05-05T03:40:02.473Z,385.00
2023-05-05T03:41:02.509Z,385.00
2023-05-05T03:42:02.479Z,385.00
2023-05-05T03:43:02.526Z,385.00
2023-05-05T03:44:02.544Z,386.00
2023-05-05T03:45:02.550Z,384.00
2023-05-05T03:46:02.564Z,386.00
2023-05-05T03:47:02.567Z,386.00
2023-05-05T03:48:02.582Z,385.00
2023-05-05T03:49:02.572Z,386.00
2023-05-05T03:50:02.555Z,383.00
2023-05-05T03:51:02.594Z,384.00
2023-05-05T03:52:02.614Z,384.00
2023-05-05T03:53:02.609Z,384.00
2023-05-05T03:54:02.607Z,384.00
2023-05-05T03:55:02.601Z,384.00
2023-05-05T03:56:02.597Z,383.00
2023-05-05T03:57:02.612Z,382.00
2023-05-05T03:58:02.623Z,384.00
2023-05-05T03:59:02.633Z,385.00
2023-05-05T04:00:02.613Z,385.00
2023-05-05T04:01:02.616Z,386.00
2023-05-05T04:02:02.642Z,384.00
2023-05-05T04:03:02.743Z,386.00
2023-05-05T04:04:02.734Z,384.00
2023-05-05T04:05:02.687Z,385.00
2023-05-05T04:06:02.699Z,387.00
2023-05-05T04:07:02.707Z,389.00
2023-05-05T04:08:02.726Z,390.00
2023-05-05T04:09:02.721Z,389.00
2023-05-05T04:10:02.763Z,387.00
2023-05-05T04:11:02.815Z,390.00
2023-05-05T04:12:02.772Z,387.00
2023-05-05T04:13:02.820Z,387.00
2023-05-05T04:14:02.818Z,387.00
2023-05-05T04:15:02.818Z,386.00
2023-05-05T04:16:02.823Z,388.00
2023-05-05T04:17:02.834Z,387.00
2023-05-05T04:18:02.897Z,386.00
2023-05-05T04:19:02.809Z,386.00
2023-05-05T04:20:02.818Z,385.00
2023-05-05T04:21:02.859Z,386.00
2023-05-05T04:22:02.848Z,386.00
2023-05-05T04:23:02.857Z,387.00
2023-05-05T04:24:02.871Z,387.00
2023-05-05T04:25:02.906Z,388.00
2023-05-05T04:26:02.922Z,390.00
2023-05-05T04:27:02.897Z,392.00
2023-05-05T04:28:02.927Z,393.00
2023-05-05T04:29:02.917Z,389.00
2023-05-05T04:30:02.939Z,390.00
2023-05-05T04:31:02.957Z,391.00
2023-05-05T04:32:02.937Z,390.00
2023-05-05T04:33:02.997Z,389.00
2023-05-05T04:34:02.983Z,389.00
2023-05-05T04:35:02.993Z,389.00
2023-05-05T04:36:02.966Z,385.00
2023-05-05T04:37:02.985Z,385.00
2023-05-05T04:38:03.003Z,385.00
2023-05-05T04:39:03.065Z,388.00
2023-05-05T04:40:02.995Z,389.00
2023-05-05T04:41:03.034Z,387.00
2023-05-05T04:42:03.035Z,389.00
2023-05-05T04:43:03.036Z,390.00
2023-05-05T04:44:03.045Z,389.00
2023-05-05T04:45:03.051Z,388.00
2023-05-05T04:46:03.049Z,389.00
2023-05-05T04:47:03.031Z,391.00
2023-05-05T04:48:03.095Z,389.00
2023-05-05T04:49:03.060Z,388.00
2023-05-05T04:50:03.057Z,390.00
2023-05-05T04:51:03.057Z,389.00
2023-05-05T04:52:03.088Z,391.00
2023-05-05T04:53:03.088Z,392.00
2023-05-05T04:54:03.089Z,391.00
2023-05-05T04:55:03.103Z,391.00
2023-05-05T04:56:03.123Z,391.00
2023-05-05T04:57:03.112Z,390.00
2023-05-05T04:58:03.116Z,392.00
2023-05-05T04:59:03.131Z,391.00
2023-05-05T05:00:03.129Z,387.00
2023-05-05T05:01:03.135Z,390.00
2023-05-05T05:02:03.167Z,391.00
2023-05-05T05:03:03.250Z,392.00
2023-05-05T05:04:03.274Z,393.00
2023-05-05T05:05:03.159Z,395.00
2023-05-05T05:06:03.184Z,392.00
2023-05-05T05:07:03.187Z,390.00
2023-05-05T05:08:03.233Z,387.00
2023-05-05T05:09:03.262Z,384.00
2023-05-05T05:10:03.300Z,386.00
2023-05-05T05:11:03.351Z,386.00
2023-05-05T05:12:03.402Z,387.00
2023-05-05T05:13:03.522Z,387.00
2023-05-05T05:14:03.516Z,388.00
2023-05-05T05:15:03.591Z,390.00
2023-05-05T05:16:03.697Z,390.00
2023-05-05T05:17:03.709Z,388.00
2023-05-05T05:18:03.789Z,388.00
2023-05-05T05:19:03.811Z,388.00
2023-05-05T05:20:03.892Z,389.00
2023-05-05T05:21:03.940Z,388.00
2023-05-05T05:22:04.037Z,388.00
2023-05-05T05:23:04.056Z,388.00
2023-05-05T05:24:04.128Z,389.00
2023-05-05T05:25:04.194Z,386.00
2023-05-05T05:26:04.287Z,383.00
2023-05-05T05:27:04.315Z,382.00
2023-05-05T05:28:09.528Z,381.00
2023-05-05T05:29:05.374Z,382.00
2023-05-05T05:30:04.366Z,384.00
2023-05-05T05:31:04.354Z,384.00
2023-05-05T05:32:04.381Z,387.00
2023-05-05T05:33:04.392Z,421.00
2023-05-05T05:34:04.788Z,516.00
2023-05-05T05:35:04.307Z,627.00
2023-05-05T05:36:04.301Z,509.00
2023-05-05T05:37:04.290Z,507.00
2023-05-05T05:38:04.314Z,508.00
2023-05-05T05:39:04.291Z,486.00
2023-05-05T05:40:04.288Z,491.00
2023-05-05T05:41:04.278Z,503.00
2023-05-05T05:42:04.284Z,560.00
2023-05-05T05:43:04.320Z,566.00
2023-05-05T05:44:04.335Z,562.00
2023-05-05T05:45:04.325Z,560.00
2023-05-05T05:46:05.389Z,560.00
2023-05-05T05:47:04.471Z,560.00
2023-05-05T05:48:04.566Z,556.00
2023-05-05T05:49:04.471Z,548.00
2023-05-05T05:50:04.489Z,534.00
2023-05-05T05:51:04.524Z,522.00
2023-05-05T05:52:04.560Z,511.00
2023-05-05T05:53:04.602Z,507.00
2023-05-05T05:54:04.653Z,500.00
2023-05-05T05:55:04.699Z,497.00
2023-05-05T05:56:04.776Z,505.00
2023-05-05T05:57:04.829Z,513.00
2023-05-05T05:58:04.876Z,521.00
2023-05-05T05:59:04.929Z,528.00
2023-05-05T06:00:04.957Z,558.00
2023-05-05T06:01:05.019Z,565.00
2023-05-05T06:02:05.036Z,559.00
2023-05-05T06:03:05.105Z,557.00
2023-05-05T06:04:05.355Z,553.00
2023-05-05T06:05:05.107Z,541.00
2023-05-05T06:06:05.117Z,538.00
2023-05-05T06:07:05.137Z,538.00
2023-05-05T06:08:05.216Z,536.00
2023-05-05T06:09:05.186Z,536.00
2023-05-05T06:10:22.862Z,538.00
2023-05-05T06:11:06.215Z,541.00
2023-05-05T06:12:05.194Z,541.00
2023-05-05T06:13:05.230Z,542.00
2023-05-05T06:14:05.197Z,541.00
2023-05-05T06:15:05.188Z,545.00
2023-05-05T06:16:05.257Z,549.00
2023-05-05T06:17:05.153Z,554.00
2023-05-05T06:18:05.189Z,561.00
2023-05-05T06:19:05.310Z,563.00
2023-05-05T06:20:05.190Z,561.00
2023-05-05T06:21:05.134Z,559.00
2023-05-05T06:22:05.138Z,561.00
2023-05-05T06:23:05.112Z,564.00
2023-05-05T06:24:05.118Z,565.00
2023-05-05T06:25:05.105Z,576.00
2023-05-05T06:26:05.089Z,582.00
2023-05-05T06:27:05.083Z,587.00
2023-05-05T06:28:05.078Z,592.00
2023-05-05T06:29:05.084Z,593.00
2023-05-05T06:30:05.071Z,596.00
2023-05-05T06:31:05.105Z,595.00
2023-05-05T06:32:05.322Z,530.00
2023-05-05T06:33:05.065Z,536.00
2023-05-05T06:34:05.026Z,522.00
2023-05-05T06:35:05.035Z,497.00
2023-05-05T06:36:05.084Z,495.00
2023-05-05T06:37:05.122Z,496.00
2023-05-05T06:38:05.139Z,499.00
2023-05-05T06:39:05.211Z,502.00
2023-05-05T06:40:05.206Z,530.00
2023-05-05T06:41:05.251Z,528.00
2023-05-05T06:42:05.261Z,526.00
2023-05-05T06:43:05.305Z,531.00
2023-05-05T06:44:05.317Z,538.00
2023-05-05T06:45:05.331Z,543.00
2023-05-05T06:46:05.358Z,548.00
2023-05-05T06:47:05.945Z,553.00
2023-05-05T06:48:05.398Z,561.00
2023-05-05T06:49:05.348Z,566.00
2023-05-05T06:50:05.508Z,566.00
2023-05-05T06:51:05.368Z,514.00
2023-05-05T06:52:05.378Z,534.00
2023-05-05T06:53:05.384Z,524.00
2023-05-05T06:54:05.810Z,513.00
2023-05-05T06:55:05.415Z,500.00
2023-05-05T06:56:05.405Z,497.00
2023-05-05T06:57:05.507Z,500.00
2023-05-05T06:58:05.413Z,502.00
2023-05-05T06:59:05.432Z,501.00
2023-05-05T07:00:05.627Z,492.00
2023-05-05T07:01:05.473Z,484.00
2023-05-05T07:02:05.433Z,487.00
2023-05-05T07:03:05.478Z,486.00
2023-05-05T07:04:05.496Z,480.00
2023-05-05T07:05:05.496Z,471.00
2023-05-05T07:06:05.491Z,463.00
2023-05-05T07:07:05.526Z,454.00
2023-05-05T07:08:05.581Z,445.00
2023-05-05T07:09:05.817Z,436.00
2023-05-05T07:10:05.724Z,434.00
2023-05-05T07:11:05.664Z,435.00
2023-05-05T07:12:05.833Z,429.00
2023-05-05T07:13:05.821Z,426.00
2023-05-05T07:14:05.785Z,426.00
2023-05-05T07:15:15.785Z,432.00
2023-05-05T07:16:06.853Z,436.00
2023-05-05T07:17:05.776Z,439.00
2023-05-05T07:18:05.798Z,443.00
2023-05-05T07:19:05.760Z,448.00
2023-05-05T07:20:05.997Z,453.00
2023-05-05T07:21:05.739Z,457.00
2023-05-05T07:22:05.743Z,461.00
2023-05-05T07:23:06.041Z,465.00
2023-05-05T07:24:05.729Z,470.00
2023-05-05T07:25:05.731Z,474.00
2023-05-05T07:26:05.720Z,466.00
2023-05-05T07:27:05.702Z,468.00
2023-05-05T07:28:05.703Z,483.00
2023-05-05T07:29:05.895Z,491.00
2023-05-05T07:30:11.185Z,556.00
2023-05-05T07:31:06.688Z,594.00
2023-05-05T07:32:05.882Z,611.00
2023-05-05T07:33:05.709Z,630.00
2023-05-05T07:34:05.655Z,648.00
2023-05-05T07:35:05.665Z,659.00
2023-05-05T07:36:05.646Z,678.00
2023-05-05T07:37:05.856Z,699.00
2023-05-05T07:38:05.613Z,703.00
2023-05-05T07:39:05.633Z,710.00
2023-05-05T07:40:05.859Z,725.00
2023-05-05T07:41:05.675Z,745.00
2023-05-05T07:42:05.715Z,755.00
2023-05-05T07:43:05.764Z,759.00
2023-05-05T07:44:05.825Z,762.00
2023-05-05T07:45:06.040Z,761.00
2023-05-05T07:46:05.989Z,762.00
2023-05-05T07:47:05.996Z,755.00
2023-05-05T07:48:06.106Z,750.00
2023-05-05T07:49:06.331Z,743.00
2023-05-05T07:50:06.506Z,746.00
2023-05-05T07:51:06.195Z,745.00
2023-05-05T07:52:06.228Z,745.00
2023-05-05T07:53:14.484Z,742.00
2023-05-05T07:54:07.344Z,741.00
2023-05-05T07:55:06.267Z,734.00
2023-05-05T07:56:06.269Z,737.00
2023-05-05T07:57:06.258Z,749.00
2023-05-05T07:58:06.258Z,759.00
2023-05-05T07:59:06.334Z,761.00
2023-05-05T08:00:06.527Z,759.00
2023-05-05T08:01:06.377Z,754.00
2023-05-05T08:02:06.368Z,758.00
2023-05-05T08:03:07.770Z,759.00
2023-05-05T08:04:06.276Z,761.00
2023-05-05T08:05:06.706Z,764.00
2023-05-05T08:06:06.226Z,764.00
2023-05-05T08:07:06.219Z,762.00
2023-05-05T08:08:06.198Z,760.00
2023-05-05T08:09:06.175Z,752.00
2023-05-05T08:10:06.170Z,745.00
2023-05-05T08:11:06.157Z,736.00
2023-05-05T08:12:06.144Z,741.00
2023-05-05T08:13:06.241Z,743.00
2023-05-05T08:14:06.121Z,742.00
2023-05-05T08:15:06.360Z,741.00
2023-05-05T08:16:06.139Z,741.00
2023-05-05T08:17:06.166Z,743.00
2023-05-05T08:18:06.155Z,742.00
2023-05-05T08:19:12.079Z,743.00
2023-05-05T08:20:07.104Z,740.00
2023-05-05T08:21:06.099Z,722.00
2023-05-05T08:22:06.077Z,721.00
2023-05-05T08:23:06.067Z,714.00
2023-05-05T08:24:06.352Z,705.00
2023-05-05T08:25:06.157Z,694.00
2023-05-05T08:26:06.066Z,608.00
2023-05-05T08:27:06.112Z,569.00
2023-05-05T08:28:06.164Z,527.00
2023-05-05T08:29:06.204Z,505.00
2023-05-05T08:30:06.252Z,463.00
2023-05-05T08:31:06.313Z,447.00
2023-05-05T08:32:06.373Z,443.00
2023-05-05T08:33:06.557Z,431.00
2023-05-05T08:34:06.460Z,425.00
2023-05-05T08:35:06.854Z,419.00
2023-05-05T08:36:06.578Z,411.00
2023-05-05T08:37:06.632Z,426.00
2023-05-05T08:38:06.694Z,450.00
2023-05-05T08:39:06.739Z,447.00
2023-05-05T08:40:06.803Z,446.00
2023-05-05T08:41:06.883Z,452.00
2023-05-05T08:42:06.943Z,459.00
2023-05-05T08:43:06.975Z,455.00
2023-05-05T08:44:07.037Z,454.00
2023-05-05T08:45:07.247Z,482.00
2023-05-05T08:46:07.166Z,490.00
2023-05-05T08:47:07.386Z,500.00
2023-05-05T08:48:07.259Z,513.00
2023-05-05T08:49:07.332Z,514.00
2023-05-05T08:50:07.325Z,510.00
2023-05-05T08:51:07.348Z,506.00
2023-05-05T08:52:07.378Z,499.00
2023-05-05T08:53:07.469Z,497.00
2023-05-05T08:54:07.861Z,502.00
2023-05-05T08:55:07.722Z,509.00
2023-05-05T08:56:07.520Z,510.00
2023-05-05T08:57:07.519Z,506.00
2023-05-05T08:58:07.576Z,508.00
2023-05-05T08:59:07.595Z,497.00
2023-05-05T09:00:07.600Z,487.00
2023-05-05T09:01:07.699Z,486.00
2023-05-05T09:02:07.677Z,490.00
2023-05-05T09:03:07.892Z,487.00
2023-05-05T09:04:07.742Z,483.00
2023-05-05T09:05:08.067Z,482.00
2023-05-05T09:06:07.775Z,483.00
2023-05-05T09:07:07.799Z,483.00
2023-05-05T09:08:07.806Z,484.00
2023-05-05T09:09:07.854Z,485.00
2023-05-05T09:10:07.872Z,489.00
2023-05-05T09:11:07.912Z,502.00
2023-05-05T09:12:07.931Z,511.00
2023-05-05T09:13:07.970Z,519.00
2023-05-05T09:14:07.982Z,524.00
2023-05-05T09:15:08.125Z,532.00
2023-05-05T09:16:08.026Z,546.00
2023-05-05T09:17:08.191Z,536.00
2023-05-05T09:18:08.179Z,522.00
2023-05-05T09:19:08.100Z,516.00
2023-05-05T09:20:08.122Z,518.00
2023-05-05T09:21:08.279Z,520.00
2023-05-05T09:22:08.171Z,516.00
2023-05-05T09:23:08.188Z,518.00
2023-05-05T09:24:09.046Z,525.00
2023-05-05T09:25:08.466Z,536.00
2023-05-05T09:26:08.245Z,542.00
2023-05-05T09:27:08.280Z,532.00
2023-05-05T09:28:08.295Z,506.00
2023-05-05T09:29:08.345Z,504.00
2023-05-05T09:30:08.340Z,512.00
2023-05-05T09:31:08.395Z,507.00
2023-05-05T09:32:08.738Z,511.00
2023-05-05T09:33:08.973Z,510.00
2023-05-05T09:34:08.423Z,502.00
2023-05-05T09:35:08.686Z,484.00
2023-05-05T09:36:08.473Z,457.00
2023-05-05T09:37:08.553Z,475.00
2023-05-05T09:38:08.875Z,491.00
2023-05-05T09:39:08.576Z,507.00
2023-05-05T09:40:08.594Z,520.00
2023-05-05T09:41:08.662Z,534.00
2023-05-05T09:42:08.673Z,545.00
2023-05-05T09:43:08.709Z,561.00
2023-05-05T09:44:08.739Z,570.00
2023-05-05T09:45:08.906Z,589.00
2023-05-05T09:46:08.881Z,617.00
2023-05-05T09:47:21.969Z,625.00
2023-05-05T09:48:09.857Z,632.00
2023-05-05T09:49:08.805Z,635.00
2023-05-05T09:50:09.039Z,638.00
2023-05-05T09:51:08.811Z,641.00
2023-05-05T09:52:08.817Z,646.00
2023-05-05T09:53:08.950Z,656.00
2023-05-05T09:54:08.791Z,666.00
2023-05-05T09:55:08.770Z,678.00
2023-05-05T09:56:08.798Z,687.00
2023-05-05T09:57:08.768Z,694.00
2023-05-05T09:58:08.795Z,713.00
2023-05-05T09:59:08.741Z,733.00
2023-05-05T10:00:09.054Z,729.00
2023-05-05T10:01:08.767Z,724.00
2023-05-05T10:02:08.709Z,722.00
2023-05-05T10:03:08.787Z,716.00
2023-05-05T10:04:08.699Z,716.00
2023-05-05T10:05:08.977Z,713.00
2023-05-05T10:06:08.736Z,708.00
2023-05-05T10:07:08.747Z,701.00
2023-05-05T10:08:08.775Z,697.00
2023-05-05T10:09:08.810Z,690.00
2023-05-05T10:10:09.035Z,692.00
2023-05-05T10:11:08.849Z,691.00
2023-05-05T10:12:08.916Z,689.00
2023-05-05T10:13:08.935Z,691.00
2023-05-05T10:14:08.928Z,694.00
2023-05-05T10:15:08.963Z,700.00
2023-05-05T10:16:09.077Z,703.00
2023-05-05T10:17:09.019Z,703.00
2023-05-05T10:18:09.044Z,705.00
2023-05-05T10:19:09.069Z,705.00
2023-05-05T10:20:09.254Z,705.00
2023-05-05T10:21:09.138Z,705.00
2023-05-05T10:22:09.161Z,696.00
2023-05-05T10:23:09.182Z,707.00
2023-05-05T10:24:09.187Z,708.00
2023-05-05T10:25:09.293Z,716.00
2023-05-05T10:26:09.235Z,683.00
2023-05-05T10:27:10.570Z,674.00
2023-05-05T10:28:09.231Z,675.00
2023-05-05T10:29:09.222Z,681.00
2023-05-05T10:30:09.574Z,686.00
2023-05-05T10:31:20.334Z,695.00
2023-05-05T10:32:33.538Z,707.00
2023-05-05T10:33:30.020Z,717.00
2023-05-05T10:34:10.413Z,727.00
2023-05-05T10:35:09.206Z,737.00
2023-05-05T10:36:09.188Z,778.00
2023-05-05T10:37:09.189Z,789.00
2023-05-05T10:38:09.175Z,790.00
2023-05-05T10:39:09.178Z,785.00
2023-05-05T10:40:09.345Z,787.00
2023-05-05T10:41:09.148Z,797.00
2023-05-05T10:42:09.131Z,804.00
2023-05-05T10:43:09.133Z,808.00
2023-05-05T10:44:09.158Z,807.00
2023-05-05T10:45:09.169Z,800.00
2023-05-05T10:46:09.133Z,809.00
2023-05-05T10:47:09.105Z,813.00
2023-05-05T10:48:09.255Z,789.00
2023-05-05T10:49:11.118Z,775.00
2023-05-05T10:50:09.376Z,795.00
2023-05-05T10:51:09.078Z,809.00
2023-05-05T10:52:09.071Z,820.00
2023-05-05T10:53:09.071Z,825.00
2023-05-05T10:54:09.078Z,826.00
2023-05-05T10:55:09.047Z,827.00
2023-05-05T10:56:09.028Z,827.00
2023-05-05T10:57:09.098Z,816.00
2023-05-05T10:58:09.046Z,815.00
2023-05-05T10:59:09.026Z,808.00
2023-05-05T11:00:09.268Z,804.00
2023-05-05T11:01:09.038Z,801.00
2023-05-05T11:02:09.000Z,799.00
2023-05-05T11:03:09.051Z,793.00
2023-05-05T11:04:09.091Z,793.00
2023-05-05T11:05:09.005Z,791.00
2023-05-05T11:06:08.972Z,786.00
2023-05-05T11:07:11.764Z,783.00
2023-05-05T11:08:09.938Z,738.00
2023-05-05T11:09:08.951Z,742.00
2023-05-05T11:10:09.564Z,750.00
2023-05-05T11:11:08.930Z,754.00
2023-05-05T11:12:08.929Z,755.00
2023-05-05T11:13:09.037Z,902.00
2023-05-05T11:14:08.913Z,896.00
2023-05-05T11:15:08.916Z,775.00
2023-05-05T11:16:08.915Z,781.00
2023-05-05T11:17:08.897Z,779.00
2023-05-05T11:18:09.018Z,780.00
2023-05-05T11:19:08.854Z,730.00
2023-05-05T11:20:09.323Z,736.00
2023-05-05T11:21:08.862Z,736.00
2023-05-05T11:22:08.860Z,727.00
2023-05-05T11:23:08.850Z,677.00
2023-05-05T11:24:08.824Z,681.00
2023-05-05T11:25:08.828Z,592.00
2023-05-05T11:26:08.805Z,579.00
2023-05-05T11:27:08.835Z,559.00
2023-05-05T11:28:08.896Z,550.00
2023-05-05T11:29:08.941Z,540.00
2023-05-05T11:30:09.052Z,537.00
2023-05-05T11:31:08.967Z,519.00
2023-05-05T11:32:08.968Z,507.00
2023-05-05T11:33:09.007Z,505.00
2023-05-05T11:34:09.016Z,508.00
2023-05-05T11:35:09.052Z,498.00
2023-05-05T11:36:09.092Z,509.00
2023-05-05T11:37:09.258Z,506.00
2023-05-05T11:38:09.171Z,504.00
2023-05-05T11:39:09.225Z,514.00
2023-05-05T11:40:09.394Z,516.00
2023-05-05T11:41:09.234Z,520.00
2023-05-05T11:42:10.972Z,525.00
2023-05-05T11:43:09.301Z,532.00
2023-05-05T11:44:09.330Z,538.00
2023-05-05T11:45:09.443Z,543.00
2023-05-05T11:46:09.443Z,543.00
2023-05-05T11:47:09.388Z,546.00
2023-05-05T11:48:09.470Z,543.00
2023-05-05T11:49:09.450Z,543.00
2023-05-05T11:50:09.647Z,539.00
2023-05-05T11:51:09.487Z,533.00
2023-05-05T11:52:09.507Z,536.00
2023-05-05T11:53:09.535Z,536.00
2023-05-05T11:54:09.562Z,531.00
2023-05-05T11:55:09.586Z,528.00
2023-05-05T11:56:09.615Z,526.00
2023-05-05T11:57:09.638Z,522.00
2023-05-05T11:58:09.645Z,520.00
2023-05-05T11:59:09.724Z,513.00
2023-05-05T12:00:09.827Z,508.00
2023-05-05T12:01:09.879Z,499.00
2023-05-05T12:02:09.751Z,491.00
2023-05-05T12:03:09.877Z,486.00
2023-05-05T12:04:09.987Z,479.00
2023-05-05T12:05:09.838Z,474.00
2023-05-05T12:06:09.877Z,478.00
2023-05-05T12:07:09.904Z,475.00
2023-05-05T12:08:09.949Z,463.00
2023-05-05T12:09:09.969Z,458.00
2023-05-05T12:10:10.127Z,456.00
2023-05-05T12:11:10.080Z,451.00
2023-05-05T12:12:10.055Z,450.00
2023-05-05T12:13:10.153Z,461.00
2023-05-05T12:14:10.116Z,455.00
2023-05-05T12:15:10.290Z,445.00
2023-05-05T12:16:10.194Z,434.00
2023-05-05T12:17:10.351Z,429.00
2023-05-05T12:18:10.339Z,429.00
2023-05-05T12:19:10.293Z,428.00
2023-05-05T12:20:10.644Z,422.00
2023-05-05T12:21:10.367Z,422.00
2023-05-05T12:22:10.401Z,423.00
2023-05-05T12:23:10.441Z,417.00
2023-05-05T12:24:10.502Z,414.00
2023-05-05T12:25:10.488Z,414.00
2023-05-05T12:26:10.539Z,412.00
2023-05-05T12:27:10.561Z,406.00
2023-05-05T12:28:10.618Z,405.00